WXM80 ListenWXM80 Stop

You find our weather info also at:

UK Metoffice

WeatherCloud

Weather Underground

Northeastern Weather Network

AWEKAS

Citizen Weather Observer Program (CWOP)

HAMweather, WeatherForYou, PWS Weather


Weather Underground History page Text

Daily Summary for November 12, 2017 Units:  Metric    English   Both
« Previous Day
Next Day »
Daily Weekly Monthly Yearly Custom
  High: Low: Average:
Temperature: 9.7 °C -1.8 °C 3.1 °C
Dew Point: 0.8 °C -4.1 °C -1.3 °C
Humidity: 91 % 51 % 75 %
Wind Speed: 6.9 km/h 0 km/h 0.6 km/h
Wind Gust: 13 km/h - -
Wind:- - West
Pressure: 1032.4 hPa 1021.6 hPa -
Precipitation: 0 mm    
Historical Graphs
 
 
Tabular Data for November 12, 2017
Time Temperature Dew Point Pressure Wind Wind Speed Wind Gust Humidity Rainfall Rate (Hourly)
00:04 -1.2 °C -3.8 °C 1032.4 hPa West 2.6 km/h 3.7 km/h 82 % 0 mm
00:09 -1.1 °C -3.8 °C 1032.4 hPa West 1 km/h 5.6 km/h 82 % 0 mm
00:14 -1.1 °C -3.7 °C 1032.4 hPa Calm     82 % 0 mm
00:19 -1 °C -3.8 °C 1032.4 hPa Calm     81 % 0 mm
00:24 -0.9 °C -3.8 °C 1032.1 hPa Calm     81 % 0 mm
00:29 -0.9 °C -3.8 °C 1032.4 hPa Calm     81 % 0 mm
00:34 -0.9 °C -3.8 °C 1032.4 hPa Calm     81 % 0 mm
00:39 -0.9 °C -3.8 °C 1032.4 hPa Calm     81 % 0 mm
00:44 -1 °C -3.8 °C 1032.4 hPa Calm     81 % 0 mm
00:49 -1 °C -3.8 °C 1032.1 hPa West 0.2 km/h 1.9 km/h 81 % 0 mm
00:54 -1.1 °C -3.9 °C 1032.1 hPa Calm     81 % 0 mm
00:59 -1.2 °C -4 °C 1032.1 hPa West 1.4 km/h 3.7 km/h 81 % 0 mm
01:04 -1.2 °C -3.9 °C 1032.1 hPa West 0.6 km/h 1.6 km/h 82 % 0 mm
01:10 -1.3 °C -3.9 °C 1032.1 hPa Calm     82 % 0 mm
01:15 -1.3 °C -4 °C 1031.7 hPa Calm     82 % 0 mm
01:20 -1.3 °C -4 °C 1031.7 hPa West 0.3 km/h 1.9 km/h 82 % 0 mm
01:25 -1.4 °C -3.9 °C 1031.7 hPa Calm     83 % 0 mm
01:30 -1.5 °C -4 °C 1031.4 hPa Calm     83 % 0 mm
01:35 -1.5 °C -4 °C 1031.7 hPa Calm   1.9 km/h 83 % 0 mm
01:40 -1.6 °C -4.1 °C 1031.7 hPa Calm     83 % 0 mm
01:45 -1.6 °C -4.1 °C 1031.7 hPa West 0.5 km/h 1.9 km/h 83 % 0 mm
01:50 -1.7 °C -4 °C 1032.1 hPa West 2.1 km/h 3.7 km/h 84 % 0 mm
01:55 -1.7 °C -4.1 °C 1032.1 hPa Calm     84 % 0 mm
02:00 -1.7 °C -4.1 °C 1032.1 hPa West 1 km/h 1.9 km/h 84 % 0 mm
02:05 -1.8 °C -4.1 °C 1032.1 hPa Calm     84 % 0 mm
02:10 -1.8 °C -4.1 °C 1032.1 hPa Calm     84 % 0 mm
02:15 -1.8 °C -3.9 °C 1032.1 hPa Calm     85 % 0 mm
02:20 -1.8 °C -3.9 °C 1032.1 hPa Calm     85 % 0 mm
02:25 -1.8 °C -3.9 °C 1032.1 hPa Calm   1.9 km/h 85 % 0 mm
02:30 -1.8 °C -3.9 °C 1032.1 hPa Calm     85 % 0 mm
02:35 -1.8 °C -3.9 °C 1032.1 hPa Calm     85 % 0 mm
02:41 -1.8 °C -4 °C 1032.1 hPa Calm   1.6 km/h 85 % 0 mm
02:46 -1.8 °C -4 °C 1032.1 hPa Calm   1.6 km/h 85 % 0 mm
02:51 -1.8 °C -4 °C 1032.1 hPa Calm     85 % 0 mm
02:56 -1.8 °C -3.9 °C 1031.7 hPa Calm     86 % 0 mm
03:01 -1.8 °C -4 °C 1031.7 hPa Calm     85 % 0 mm
03:06 -1.8 °C -4 °C 1031.7 hPa Calm     85 % 0 mm
03:11 -1.8 °C -4 °C 1031.7 hPa Calm     85 % 0 mm
03:16 -1.8 °C -4 °C 1031.7 hPa Calm     85 % 0 mm
03:21 -1.8 °C -3.9 °C 1031.7 hPa Calm     86 % 0 mm
03:26 -1.8 °C -3.9 °C 1031.7 hPa Calm     86 % 0 mm
03:31 -1.8 °C -3.9 °C 1032.1 hPa Calm   1.9 km/h 86 % 0 mm
03:36 -1.8 °C -3.9 °C 1031.7 hPa Calm     86 % 0 mm
03:41 -1.8 °C -3.9 °C 1031.7 hPa Calm     86 % 0 mm
03:46 -1.8 °C -3.9 °C 1032.1 hPa Calm     86 % 0 mm
03:51 -1.8 °C -3.7 °C 1032.1 hPa West 0.2 km/h   87 % 0 mm
03:56 -1.8 °C -3.7 °C 1032.1 hPa Calm     87 % 0 mm
04:01 -1.8 °C -3.7 °C 1032.1 hPa Calm     87 % 0 mm
04:06 -1.7 °C -3.6 °C 1031.7 hPa Calm     87 % 0 mm
04:11 -1.7 °C -3.6 °C 1031.7 hPa Calm     87 % 0 mm
04:16 -1.7 °C -3.6 °C 1031.7 hPa Calm     87 % 0 mm
04:21 -1.7 °C -3.6 °C 1032.1 hPa Calm     87 % 0 mm
04:25 -1.7 °C -3.6 °C 1031.7 hPa Calm     87 % 0 mm
04:30 -1.7 °C -3.6 °C 1032.1 hPa Calm     87 % 0 mm
04:35 -1.7 °C -3.4 °C 1031.7 hPa Calm     88 % 0 mm
04:40 -1.7 °C -3.4 °C 1032.1 hPa Calm     88 % 0 mm
04:51 -1.6 °C -3.3 °C 1032.1 hPa Calm     88 % 0 mm
04:56 -1.6 °C -3.3 °C 1032.1 hPa Calm   1.6 km/h 88 % 0 mm
05:01 -1.6 °C -3.3 °C 1032.1 hPa Calm     88 % 0 mm
05:06 -1.6 °C -3.3 °C 1032.1 hPa West 0.3 km/h 1.9 km/h 88 % 0 mm
05:11 -1.5 °C -3.4 °C 1032.1 hPa Calm   1.9 km/h 87 % 0 mm
05:16 -1.5 °C -3.4 °C 1032.1 hPa West 0.5 km/h 1.9 km/h 87 % 0 mm
05:21 -1.4 °C -3.3 °C 1031.7 hPa Calm     87 % 0 mm
05:26 -1.4 °C -3.1 °C 1031.7 hPa Calm   3.7 km/h 88 % 0 mm
05:31 -1.3 °C -3.1 °C 1031.7 hPa Calm   1.9 km/h 88 % 0 mm
05:36 -1.3 °C -3 °C 1031.7 hPa Calm     88 % 0 mm
05:41 -1.2 °C -2.8 °C 1031.7 hPa West 0.2 km/h 1.9 km/h 89 % 0 mm
05:46 -1.1 °C -2.7 °C 1031.7 hPa West 1 km/h 1.9 km/h 89 % 0 mm
05:51 -1.1 °C -2.6 °C 1031.7 hPa West 0.5 km/h 3.7 km/h 89 % 0 mm
05:56 -0.9 °C -2.4 °C 1031.7 hPa West 1.3 km/h 3.7 km/h 90 % 0 mm
06:02 -0.8 °C -2.3 °C 1031.7 hPa West 0.2 km/h 1.9 km/h 90 % 0 mm
06:04 -0.8 °C -2.3 °C 1032.1 hPa Calm   1.9 km/h 90 % 0 mm
06:09 -0.8 °C -2.4 °C 1031.7 hPa Calm     89 % 0 mm
06:14 -0.8 °C -2.4 °C 1031.7 hPa Calm     89 % 0 mm
06:19 -0.7 °C -2.3 °C 1031.7 hPa Calm   1.6 km/h 89 % 0 mm
06:24 -0.7 °C -2.3 °C 1032.1 hPa West 3.4 km/h 5.6 km/h 89 % 0 mm
06:29 -0.7 °C -2.3 °C 1032.1 hPa Calm     89 % 0 mm
06:34 -0.7 °C -2.4 °C 1032.1 hPa Calm     88 % 0 mm
06:39 -0.7 °C -2.4 °C 1032.1 hPa Calm     88 % 0 mm
06:44 -0.7 °C -2.4 °C 1031.7 hPa West 0.6 km/h 1.9 km/h 88 % 0 mm
06:49 -0.7 °C -2.4 °C 1031.7 hPa West 1.4 km/h 3.7 km/h 88 % 0 mm
06:54 -0.7 °C -2.4 °C 1031.7 hPa Calm     88 % 0 mm
06:59 -0.7 °C -2.4 °C 1031.7 hPa West 0.5 km/h 1.9 km/h 88 % 0 mm
07:05 -0.7 °C -2.4 °C 1032.1 hPa Calm   1.9 km/h 88 % 0 mm
07:10 -0.7 °C -2.6 °C 1032.1 hPa West 1.6 km/h 3.7 km/h 87 % 0 mm
07:15 -0.7 °C -2.4 °C 1031.7 hPa West 1.9 km/h 3.7 km/h 88 % 0 mm
07:20 -0.6 °C -2.3 °C 1032.1 hPa Calm   1.9 km/h 88 % 0 mm
07:25 -0.6 °C -2.3 °C 1032.1 hPa Calm     88 % 0 mm
07:30 -0.5 °C -2.2 °C 1032.1 hPa Calm     88 % 0 mm
07:35 -0.4 °C -2.1 °C 1032.1 hPa Calm     88 % 0 mm
07:40 -0.3 °C -1.9 °C 1032.1 hPa Calm     89 % 0 mm
07:45 -0.2 °C -1.8 °C 1032.1 hPa Calm     89 % 0 mm
07:50 -0.1 °C -1.5 °C 1032.1 hPa West 1.9 km/h 5.6 km/h 90 % 0 mm
07:55 0.1 °C -1.3 °C 1031.7 hPa Calm     90 % 0 mm
08:00 0.3 °C -1 °C 1032.1 hPa Calm     91 % 0 mm
08:05 0.5 °C -0.8 °C 1032.1 hPa West 1.4 km/h 3.7 km/h 91 % 0 mm
08:10 0.7 °C -0.6 °C 1032.1 hPa Calm     91 % 0 mm
08:15 1 °C -0.3 °C 1032.1 hPa Calm   1.9 km/h 91 % 0 mm
08:20 1.2 °C -0.1 °C 1032.1 hPa Calm     91 % 0 mm
08:25 1.5 °C 0.2 °C 1032.1 hPa Calm     91 % 0 mm
08:30 1.7 °C 0.2 °C 1032.1 hPa Calm     90 % 0 mm
08:35 1.9 °C 0.3 °C 1032.1 hPa Calm   1.6 km/h 89 % 0 mm
08:40 2.2 °C 0.1 °C 1032.1 hPa Calm   1.6 km/h 86 % 0 mm
08:45 2.4 °C -0.2 °C 1032.1 hPa Calm   1.6 km/h 83 % 0 mm
08:51 2.7 °C -0.4 °C 1032.1 hPa Calm   3.2 km/h 80 % 0 mm
08:55 2.9 °C -0.7 °C 1032.1 hPa WSW 1.6 km/h 3.2 km/h 77 % 0 mm
09:00 3.2 °C -1.4 °C 1032.1 hPa WSW 0.3 km/h 3.2 km/h 72 % 0 mm
09:05 3.4 °C -1.5 °C 1031.7 hPa WSW 0.5 km/h 3.7 km/h 70 % 0 mm
09:06 3.4 °C -1.5 °C 1031.7 hPa WSW 0.5 km/h 3.7 km/h 70 % 0 mm
09:11 3.7 °C -1.7 °C 1031.7 hPa Calm   1.9 km/h 68 % 0 mm
09:16 4 °C -2 °C 1031.7 hPa NW 1.3 km/h 3.7 km/h 65 % 0 mm
09:21 4.3 °C -1.9 °C 1031.7 hPa Calm   3.7 km/h 64 % 0 mm
09:26 4.6 °C -2.1 °C 1031.7 hPa West 2.6 km/h 3.7 km/h 62 % 0 mm
09:31 4.8 °C -2.1 °C 1031.7 hPa Calm     61 % 0 mm
09:36 5.2 °C -0.8 °C 1031.4 hPa Calm     65 % 0 mm
09:41 5.6 °C -0.9 °C 1031.7 hPa Calm     63 % 0 mm
09:46 5.8 °C -1.4 °C 1031.7 hPa West 0.5 km/h 3.7 km/h 60 % 0 mm
09:51 6 °C -1.4 °C 1031.7 hPa WNW 3.1 km/h 7.4 km/h 59 % 0 mm
09:56 6.2 °C -1.5 °C 1031.7 hPa WSW 1.1 km/h 3.7 km/h 58 % 0 mm
10:01 6.3 °C -1.3 °C 1031.7 hPa WSW 0.3 km/h 1.9 km/h 58 % 0 mm
10:06 6.5 °C -1.7 °C 1031.7 hPa WSW 0.5 km/h 5.6 km/h 56 % 0 mm
10:11 6.7 °C -1.3 °C 1031.7 hPa SW 0.2 km/h 1.9 km/h 57 % 0 mm
10:17 6.8 °C -1.4 °C 1031.7 hPa WSW 0.3 km/h 1.9 km/h 56 % 0 mm
10:22 6.9 °C -1.5 °C 1031.7 hPa Calm   3.7 km/h 55 % 0 mm
10:27 7 °C -1.2 °C 1031.7 hPa West 1 km/h 3.7 km/h 56 % 0 mm
10:32 7.1 °C -1.3 °C 1031.7 hPa WNW 0.6 km/h 5.6 km/h 55 % 0 mm
10:37 7.2 °C -1.2 °C 1031.4 hPa WNW 2.1 km/h 5.6 km/h 55 % 0 mm
10:42 7.3 °C -1.1 °C 1031.7 hPa West 0.2 km/h 3.7 km/h 55 % 0 mm
10:47 7.4 °C -0.8 °C 1031.4 hPa Calm     56 % 0 mm
10:52 7.6 °C -0.9 °C 1031.4 hPa Calm   1.9 km/h 55 % 0 mm
10:57 7.7 °C -1.1 °C 1031.4 hPa WSW 4 km/h 5.6 km/h 54 % 0 mm
11:02 7.7 °C -0.8 °C 1031.4 hPa Calm     55 % 0 mm
11:07 7.7 °C -1 °C 1031 hPa West 0.2 km/h 3.7 km/h 54 % 0 mm
11:12 7.7 °C -0.8 °C 1030.7 hPa West 3.1 km/h 5.6 km/h 55 % 0 mm
11:17 7.6 °C -1.1 °C 1031 hPa West 1.1 km/h 5.6 km/h 54 % 0 mm
11:22 7.6 °C -1.2 °C 1031 hPa SSE 4.8 km/h 5.6 km/h 54 % 0 mm
11:26 7.5 °C -1.5 °C 1030.7 hPa SSE 1.1 km/h 3.7 km/h 53 % 0 mm
11:31 7.4 °C -1.3 °C 1030.7 hPa Calm   3.7 km/h 54 % 0 mm
11:36 7.4 °C -0.8 °C 1030.7 hPa WNW 1.4 km/h 3.7 km/h 56 % 0 mm
11:41 7.3 °C -1.1 °C 1030.4 hPa WNW 2.3 km/h 5.6 km/h 55 % 0 mm
11:46 7.3 °C -0.9 °C 1030.4 hPa WNW 1 km/h 4.8 km/h 56 % 0 mm
11:51 7.3 °C -0.9 °C 1030.4 hPa WNW 2.4 km/h 6.4 km/h 56 % 0 mm
11:56 7.3 °C -0.7 °C 1030.4 hPa WNW 0.8 km/h 3.7 km/h 57 % 0 mm
12:01 7.3 °C -0.9 °C 1030.4 hPa SW 0.8 km/h 5.6 km/h 56 % 0 mm
12:06 7.3 °C -0.6 °C 1030.4 hPa Calm   3.7 km/h 57 % 0 mm
12:11 7.3 °C -0.6 °C 1030.4 hPa WSW 1.8 km/h 8 km/h 57 % 0 mm
12:16 7.3 °C -0.6 °C 1030.4 hPa SSW 1.4 km/h 5.6 km/h 57 % 0 mm
12:21 7.4 °C -0.8 °C 1030.4 hPa WNW 2.1 km/h 5.6 km/h 56 % 0 mm
12:26 7.4 °C -0.6 °C 1030 hPa West 1.6 km/h 4.8 km/h 57 % 0 mm
12:32 7.4 °C -0.6 °C 1030 hPa NNW 4.3 km/h 5.6 km/h 57 % 0 mm
12:37 7.4 °C -0.6 °C 1030 hPa WNW 2.4 km/h 13 km/h 57 % 0 mm
12:42 7.4 °C -0.6 °C 1030 hPa West 4.8 km/h 11.1 km/h 57 % 0 mm
12:47 7.5 °C -0.5 °C 1030 hPa WNW 2.9 km/h 7.4 km/h 57 % 0 mm
12:52 7.6 °C -0.4 °C 1030 hPa NW 3.7 km/h 5.6 km/h 57 % 0 mm
12:57 7.7 °C -0.3 °C 1030 hPa WNW 1.1 km/h 3.7 km/h 57 % 0 mm
13:02 7.8 °C -0.2 °C 1029.7 hPa NW 3.9 km/h 7.4 km/h 57 % 0 mm
13:07 7.9 °C -0.3 °C 1029.3 hPa WSW 2.6 km/h 5.6 km/h 56 % 0 mm
13:12 8.2 °C -0.1 °C 1029.3 hPa West 4.8 km/h 5.6 km/h 56 % 0 mm
13:17 8.4 °C 0.2 °C 1029.3 hPa SW 5.8 km/h 8 km/h 56 % 0 mm
13:21 8.7 °C 0.2 °C 1029.3 hPa SW 1.8 km/h 9.3 km/h 55 % 0 mm
13:26 8.9 °C -0.1 °C 1029.3 hPa WNW 6.9 km/h 11.1 km/h 53 % 0 mm
13:31 9.2 °C 0.1 °C 1029 hPa SW 2.6 km/h 5.6 km/h 53 % 0 mm
13:37 9.3 °C 0.2 °C 1029.3 hPa WNW 2.3 km/h 8 km/h 53 % 0 mm
13:42 9.4 °C 0.6 °C 1029.3 hPa NNW 1.4 km/h 1.9 km/h 54 % 0 mm
13:47 9.6 °C 0.4 °C 1029 hPa NW 2.6 km/h 7.4 km/h 53 % 0 mm
13:52 9.6 °C -0.1 °C 1029 hPa WNW 3.2 km/h 11.1 km/h 51 % 0 mm
13:57 9.7 °C 0.8 °C 1029 hPa NNW 2.9 km/h 4.8 km/h 54 % 0 mm
14:02 9.6 °C 0.4 °C 1029 hPa WNW 3.2 km/h 5.6 km/h 53 % 0 mm
14:07 9.5 °C 0.7 °C 1029 hPa NNE 2.7 km/h 5.6 km/h 54 % 0 mm
14:12 9.3 °C 0.2 °C 1029 hPa West 3.4 km/h 9.3 km/h 53 % 0 mm
14:17 9.2 °C 0.6 °C 1029 hPa NE 3.4 km/h 7.4 km/h 55 % 0 mm
14:22 9 °C 0.7 °C 1029 hPa NNW 1.8 km/h 5.6 km/h 56 % 0 mm
14:27 8.8 °C 0.5 °C 1029 hPa NE 5.8 km/h 7.4 km/h 56 % 0 mm
14:32 8.6 °C 0.6 °C 1029 hPa NW 3.1 km/h 5.6 km/h 57 % 0 mm
14:37 8.5 °C 0.4 °C 1029 hPa NW 1.8 km/h 5.6 km/h 57 % 0 mm
14:42 8.4 °C 0.6 °C 1029 hPa WNW 0.6 km/h 6.4 km/h 58 % 0 mm
14:47 8.3 °C 0.5 °C 1029 hPa North 1.9 km/h 5.6 km/h 58 % 0 mm
14:52 8.2 °C 0.6 °C 1029 hPa NW 2.6 km/h 7.4 km/h 59 % 0 mm
14:57 8.1 °C 0.3 °C 1029 hPa NNW 0.3 km/h 5.6 km/h 58 % 0 mm
15:02 8 °C 0.4 °C 1028.7 hPa NNW 2.1 km/h 4.8 km/h 59 % 0 mm
15:07 7.9 °C 0.4 °C 1029 hPa NNW 2.7 km/h 5.6 km/h 59 % 0 mm
15:12 7.9 °C 0.4 °C 1029 hPa NW 0.2 km/h 3.7 km/h 59 % 0 mm
15:17 7.8 °C 0.3 °C 1029 hPa WNW 2.9 km/h 5.6 km/h 59 % 0 mm
15:22 7.8 °C 0.3 °C 1029 hPa Calm     59 % 0 mm
15:27 7.7 °C 0.2 °C 1029 hPa WNW 0.3 km/h 3.7 km/h 59 % 0 mm
15:32 7.7 °C 0.2 °C 1029 hPa Calm     59 % 0 mm
15:37 7.6 °C 0.1 °C 1029 hPa Calm     59 % 0 mm
15:42 7.6 °C 0.1 °C 1028.7 hPa WNW 2.1 km/h 5.6 km/h 59 % 0 mm
15:47 7.5 °C 0.2 °C 1028.7 hPa Calm     60 % 0 mm
15:52 7.4 °C 0.2 °C 1029 hPa Calm     60 % 0 mm
15:57 7.4 °C 0.4 °C 1028.7 hPa SW 0.2 km/h 1.9 km/h 61 % 0 mm
16:02 7.4 °C 0.3 °C 1028.7 hPa Calm     61 % 0 mm
16:07 7.3 °C 0.3 °C 1028.7 hPa Calm     61 % 0 mm
16:13 7.3 °C 0.4 °C 1029 hPa Calm   1.9 km/h 62 % 0 mm
16:18 7.2 °C 0.4 °C 1029 hPa West 1.4 km/h 9.3 km/h 62 % 0 mm
16:23 7.1 °C 0.3 °C 1029 hPa WSW 1.4 km/h 5.6 km/h 62 % 0 mm
16:28 7 °C 0.2 °C 1029 hPa Calm     62 % 0 mm
16:33 6.9 °C 0.4 °C 1029 hPa Calm     63 % 0 mm
16:38 6.8 °C 0.3 °C 1029 hPa SW 1.1 km/h 3.7 km/h 63 % 0 mm
16:43 6.8 °C 0.4 °C 1029 hPa Calm   3.7 km/h 64 % 0 mm
16:48 6.7 °C 0.3 °C 1029 hPa Calm   1.9 km/h 64 % 0 mm
16:53 6.6 °C 0.2 °C 1029 hPa Calm     64 % 0 mm
16:58 6.4 °C 0.3 °C 1029 hPa Calm     65 % 0 mm
17:03 6.3 °C 0.4 °C 1029 hPa Calm     66 % 0 mm
17:08 6.1 °C 0.2 °C 1029 hPa Calm     66 % 0 mm
17:13 5.9 °C 0.3 °C 1029 hPa Calm     67 % 0 mm
17:18 5.8 °C 0.4 °C 1029 hPa Calm     68 % 0 mm
17:23 5.7 °C 0.4 °C 1029 hPa Calm     69 % 0 mm
17:28 5.4 °C 0.2 °C 1029 hPa Calm     69 % 0 mm
17:33 5.3 °C 0.2 °C 1029 hPa Calm     70 % 0 mm
17:38 5.2 °C 0.1 °C 1029.3 hPa Calm     70 % 0 mm
17:43 4.9 °C -0.1 °C 1029.3 hPa Calm     70 % 0 mm
17:48 4.8 °C -0.1 °C 1029.3 hPa Calm     71 % 0 mm
17:53 4.6 °C 0 °C 1029 hPa Calm     72 % 0 mm
17:58 4.4 °C 0 °C 1029 hPa Calm     73 % 0 mm
18:03 4.3 °C -0.1 °C 1029 hPa Calm     73 % 0 mm
18:08 4.2 °C -0.2 °C 1029 hPa Calm     73 % 0 mm
18:13 4.1 °C -0.2 °C 1028.7 hPa Calm     74 % 0 mm
18:18 3.9 °C -0.2 °C 1029 hPa Calm     75 % 0 mm
18:24 3.8 °C -0.2 °C 1029 hPa Calm     75 % 0 mm
18:28 3.7 °C -0.2 °C 1029.3 hPa SW 1 km/h 1.9 km/h 76 % 0 mm
18:34 3.6 °C -0.3 °C 1029 hPa SW 0.5 km/h 3.7 km/h 76 % 0 mm
18:39 3.4 °C -0.2 °C 1029 hPa Calm     77 % 0 mm
18:44 3.4 °C -0.3 °C 1029 hPa SW 0.2 km/h 1.9 km/h 77 % 0 mm
18:49 3.3 °C -0.3 °C 1029 hPa Calm     77 % 0 mm
18:54 3.3 °C -0.4 °C 1029 hPa Calm   1.9 km/h 77 % 0 mm
18:59 3.2 °C -0.2 °C 1029 hPa Calm     78 % 0 mm
19:04 3.2 °C -0.2 °C 1029 hPa Calm     78 % 0 mm
19:09 3.2 °C -0.1 °C 1029 hPa Calm     79 % 0 mm
19:14 3.2 °C -0.3 °C 1029 hPa Calm     78 % 0 mm
19:19 3.2 °C -0.1 °C 1029 hPa Calm     79 % 0 mm
19:24 3.1 °C -0.2 °C 1029 hPa Calm     79 % 0 mm
19:29 3.1 °C 0 °C 1029 hPa Calm     80 % 0 mm
19:34 3.1 °C -0.1 °C 1028.7 hPa Calm     80 % 0 mm
19:39 3.1 °C -0.1 °C 1028.7 hPa Calm     80 % 0 mm
19:44 3.1 °C -0.1 °C 1028.7 hPa SW 0.8 km/h 3.7 km/h 80 % 0 mm
19:49 3.1 °C 0 °C 1028.7 hPa SW 0.2 km/h 1.9 km/h 80 % 0 mm
19:54 3.1 °C -0.1 °C 1028.7 hPa Calm     80 % 0 mm
19:59 3.1 °C 0.2 °C 1028.7 hPa Calm     81 % 0 mm
20:04 3.1 °C 0 °C 1028.7 hPa Calm     80 % 0 mm
20:09 3.1 °C 0 °C 1028.7 hPa SW 0.3 km/h 1.9 km/h 80 % 0 mm
20:14 3.1 °C 0 °C 1028.7 hPa Calm     80 % 0 mm
20:19 3.2 °C 0.1 °C 1029 hPa Calm     80 % 0 mm
20:24 3.1 °C 0 °C 1029 hPa Calm     80 % 0 mm
20:29 3.1 °C 0 °C 1029 hPa Calm     80 % 0 mm
20:34 3.1 °C -0.1 °C 1029 hPa SW 0.3 km/h 1.9 km/h 80 % 0 mm
20:39 3.1 °C -0.1 °C 1029 hPa Calm     80 % 0 mm
20:44 3 °C -0.1 °C 1029 hPa Calm     80 % 0 mm
20:49 2.9 °C -0.2 °C 1029 hPa Calm     80 % 0 mm
20:54 2.9 °C -0.2 °C 1029 hPa Calm     80 % 0 mm
20:59 2.8 °C -0.3 °C 1029 hPa Calm     80 % 0 mm
21:04 2.7 °C -0.4 °C 1029 hPa Calm     80 % 0 mm
21:09 2.7 °C -0.4 °C 1029 hPa Calm   1.9 km/h 80 % 0 mm
21:14 2.6 °C -0.3 °C 1029.3 hPa Calm     81 % 0 mm
21:19 2.6 °C -0.4 °C 1029.3 hPa Calm     81 % 0 mm
21:24 2.5 °C -0.4 °C 1029 hPa SW 0.3 km/h 1.6 km/h 81 % 0 mm
21:28 2.4 °C -0.3 °C 1029 hPa SW 0.3 km/h 1.9 km/h 82 % 0 mm
21:33 2.4 °C -0.3 °C 1029.3 hPa Calm     82 % 0 mm
21:38 2.4 °C -0.4 °C 1029.3 hPa Calm     82 % 0 mm
21:43 2.3 °C -0.4 °C 1029.7 hPa Calm     82 % 0 mm
21:48 2.3 °C -0.3 °C 1029.3 hPa SW 0.2 km/h 1.9 km/h 83 % 0 mm
21:53 2.3 °C -0.3 °C 1029.3 hPa Calm     83 % 0 mm
21:58 2.3 °C -0.3 °C 1029 hPa Calm     83 % 0 mm
22:03 2.3 °C -0.3 °C 1029.3 hPa SW 0.8 km/h 1.9 km/h 83 % 0 mm
22:08 2.2 °C -0.4 °C 1029.3 hPa Calm   1.9 km/h 83 % 0 mm
22:14 2.2 °C -0.4 °C 1029.3 hPa Calm   3.7 km/h 83 % 0 mm
22:19 2.2 °C -0.2 °C 1029.3 hPa SW 0.8 km/h 1.9 km/h 84 % 0 mm
22:21 2.2 °C -0.2 °C 1021.9 hPa SW 0.3 km/h 1.9 km/h 84 % 0 mm
22:24 2.2 °C -0.2 °C 1021.6 hPa Calm     84 % 0 mm
22:25 2.3 °C -0.2 °C 1029 hPa Calm     84 % 0 mm
22:30 2.3 °C -0.2 °C 1029 hPa Calm     84 % 0 mm
22:35 2.3 °C -0.2 °C 1029 hPa Calm     84 % 0 mm
22:40 2.3 °C -0.2 °C 1029 hPa Calm     84 % 0 mm
22:45 2.3 °C 0.1 °C 1028.7 hPa Calm     85 % 0 mm
22:50 2.3 °C 0.1 °C 1028.7 hPa Calm     85 % 0 mm
22:55 2.4 °C 0.1 °C 1029 hPa Calm   1.9 km/h 85 % 0 mm
23:00 2.4 °C 0.1 °C 1029 hPa Calm     85 % 0 mm
23:05 2.4 °C 0.2 °C 1029 hPa Calm     85 % 0 mm
23:10 2.5 °C 0.2 °C 1029 hPa Calm     85 % 0 mm
23:15 2.5 °C 0.2 °C 1028.7 hPa Calm     85 % 0 mm
23:20 2.6 °C 0.1 °C 1028.7 hPa Calm     84 % 0 mm
23:25 2.6 °C 0.3 °C 1028.7 hPa Calm     85 % 0 mm
23:30 2.7 °C 0.4 °C 1028.7 hPa Calm     85 % 0 mm
23:35 2.7 °C 0.4 °C 1028.7 hPa Calm     85 % 0 mm
23:41 2.7 °C 0.4 °C 1028.7 hPa Calm     85 % 0 mm
23:46 2.8 °C 0.5 °C 1028.3 hPa Calm     85 % 0 mm
23:51 2.8 °C 0.5 °C 1028.3 hPa Calm     85 % 0 mm
23:56 2.8 °C 0.6 °C 1028.7 hPa SW 1 km/h 1.9 km/h 85 % 0 mm
Crab Meadow Weather
Compliments of Weather Underground - 3 mb

Script developed by  Jim McMurry - jmcmurry@mwt.net Adapted for the template by  Wim van der Kuil - Leuven-Template.eu

Recycling: The average household throws away 13,000 separate pieces of paper each year. Most is packaging and junk mail.